Forum Crazy Orc - Centre de statistiques

Statistiques générales

Total des membres:
1 007
Total des messages:
96 872
Total des sujets:
4 073
Total des catégories:
4
Membres en ligne:
84
Connexions simultanées:
808 - 21 janvier 2020 à 20:55:59
En ligne aujourd'hui:
90
Total des pages vues:
33 778 872
Moyenne des inscriptions par jour:
0,25
Moyenne des messages par jour:
24,46
Moyenne des sujets par jour:
1,09
Total des sections:
40
Dernier membre:
yumiii
Moyenne d'utilisateurs connectés par jour:
48,34
Ratio hommes/femmes:
7.2:1
Pages vues en moyenne par jour:
5 872,54

Top lanceurs de sujets

nunch
600
Morithil
315
ManuDevil
288
GroumpH
246
Scratchy
132
MAO
110
LeDupontesque
105
jules
99
snake
92
CCCP
85

Temps de connexion cumulé

Mandy
133j 19h 59m
GroumpH
112j 9h 9m
CCCP
86j 17h 18m
Nukeflow
73j 8h 19m
ManuDevil
67j 11h 22m
Felipe
61j 12h 19m
dao
56j 17h 58m
nunch
49j 51m
Rh
42j 23h 32m
Patate
42j 5h 49m

Historique du forum (basé sur l'heure interne du forum)

Résumé annuel Nouveaux sujets Nouveaux messages Nouveaux membres Connexions simultanées Pages vues
* 2022 174 1 123 95 261 3 525 139
Décembre 2022 0 6 0 124 52 728
Novembre 2022 16 103 6 261 350 274
Octobre 2022 11 120 17 208 290 108
Septembre 2022 17 115 6 258 357 415
Août 2022 15 108 9 147 318 817
Juillet 2022 13 69 4 208 308 045
Juin 2022 14 76 4 62 333 112
Mai 2022 16 118 8 91 339 244
Avril 2022 18 133 12 61 254 691
Mars 2022 15 123 8 65 281 935
Février 2022 17 84 9 58 314 588
Janvier 2022 22 68 12 70 324 182
* 2021 129 756 53 338 4 376 522
Décembre 2021 8 37 0 129 661 064
2021-12-01 0 1 0 86 10 724
2021-12-02 0 6 0 91 7 815
2021-12-03 0 0 0 93 7 911
2021-12-04 0 5 0 92 10 027
2021-12-05 2 2 0 86 10 097
2021-12-06 0 0 0 129 7 479
2021-12-07 0 0 0 101 8 162
2021-12-08 0 2 0 42 6 778
2021-12-09 0 0 0 40 7 532
2021-12-10 4 6 0 55 7 151
2021-12-11 0 1 0 42 9 757
2021-12-12 0 0 0 53 12 585
2021-12-13 0 2 0 48 10 751
2021-12-14 0 0 0 40 13 058
2021-12-15 0 1 0 35 11 053
2021-12-16 0 3 0 50 9 613
2021-12-17 0 1 0 47 11 104
2021-12-18 0 0 0 42 9 597
2021-12-19 0 2 0 48 9 257
2021-12-20 2 2 0 45 10 553
2021-12-21 0 0 0 47 10 988
2021-12-22 0 0 0 44 14 554
2021-12-23 0 1 0 47 43 880
2021-12-24 0 1 0 46 49 317
2021-12-25 0 0 0 47 49 735
2021-12-26 0 0 0 44 48 100
2021-12-27 0 1 0 41 54 117
2021-12-28 0 0 0 37 47 893
2021-12-29 0 0 0 38 54 768
2021-12-30 0 0 0 38 48 213
2021-12-31 0 0 0 38 48 495
Novembre 2021 13 99 4 153 262 314
Octobre 2021 20 208 15 159 298 103
Septembre 2021 24 171 10 280 285 455
Août 2021 11 33 7 73 231 609
2021-08-01 0 0 0 28 9 012
2021-08-02 0 0 0 33 10 340
2021-08-03 0 0 0 48 9 087
2021-08-04 0 0 0 39 6 385
2021-08-05 0 0 1 40 5 603
2021-08-06 0 0 0 40 9 211
2021-08-07 0 0 0 40 10 577
2021-08-08 0 0 0 36 10 060
2021-08-09 0 0 0 40 11 728
2021-08-10 0 0 0 55 10 109
2021-08-11 0 0 0 37 6 508
2021-08-12 0 0 0 39 8 136
2021-08-13 1 3 1 41 6 454
2021-08-14 2 5 1 37 6 972
2021-08-15 0 0 0 43 9 840
2021-08-16 0 0 0 38 13 142
2021-08-17 0 0 0 45 7 592
2021-08-18 0 0 1 38 6 557
2021-08-19 0 0 0 37 6 038
2021-08-20 2 2 0 37 6 461
2021-08-21 0 0 0 48 6 027
2021-08-22 0 0 0 40 2 939
2021-08-23 0 1 0 35 3 225
2021-08-24 0 1 0 41 6 669
2021-08-25 3 7 1 50 9 922
2021-08-26 1 1 0 73 2 986
2021-08-27 0 0 0 35 2 451
2021-08-28 0 1 1 33 5 309
2021-08-29 0 0 0 32 8 982
2021-08-30 2 6 1 32 7 294
2021-08-31 0 6 0 42 5 993
Juillet 2021 6 8 2 81 305 173
Juin 2021 17 31 2 135 311 168
Mai 2021 3 31 4 268 597 777
Avril 2021 10 51 6 287 308 355
Mars 2021 7 24 1 308 444 900
Février 2021 5 29 2 338 223 056
Janvier 2021 5 34 0 322 447 548
* 2020 206 1 716 105 808 4 713 463
Décembre 2020 6 38 2 320 310 487
Novembre 2020 12 97 3 352 464 426
Octobre 2020 21 169 7 346 497 422
Septembre 2020 30 356 15 133 325 183
Août 2020 16 147 7 163 471 897
Juillet 2020 16 77 2 100 345 760
Juin 2020 17 60 5 127 452 817
Mai 2020 7 22 3 295 321 652
2020-05-01 0 0 1 256 14 023
2020-05-02 1 1 0 203 11 018
2020-05-03 0 0 0 196 11 059
2020-05-04 0 1 0 219 12 362
2020-05-05 0 0 0 118 9 025
2020-05-06 0 0 1 207 9 203
2020-05-07 0 4 0 226 9 310
2020-05-08 0 0 0 247 12 323
2020-05-09 0 2 0 241 11 845
2020-05-10 0 4 0 245 13 234
2020-05-11 0 1 0 238 7 557
2020-05-12 0 1 0 241 9 777
2020-05-13 0 1 0 295 11 812
2020-05-14 6 6 0 249 13 287
2020-05-15 0 0 0 226 13 447
2020-05-16 0 0 0 172 12 505
2020-05-17 0 0 0 120 10 079
2020-05-18 0 0 0 130 10 552
2020-05-19 0 0 0 131 10 117
2020-05-20 0 1 0 107 7 233
2020-05-21 0 0 1 52 7 639
2020-05-22 0 0 0 51 9 754
2020-05-23 0 0 0 57 7 435
2020-05-24 0 0 0 57 7 298
2020-05-25 0 0 0 74 5 034
2020-05-26 0 0 0 82 7 744
2020-05-27 0 0 0 107 11 791
2020-05-28 0 0 0 100 9 031
2020-05-29 0 0 0 104 9 467
2020-05-30 0 0 0 108 15 345
2020-05-31 0 0 0 116 11 346
Avril 2020 10 47 1 189 300 030
Mars 2020 24 253 3 199 467 854
Février 2020 18 171 9 323 281 798
Janvier 2020 29 279 48 808 474 137
2020-01-01 0 12 0 120 10 073
2020-01-02 1 9 0 127 13 456
2020-01-03 3 8 5 120 7 230
2020-01-04 1 7 2 109 7 682
2020-01-05 0 6 2 116 7 700
2020-01-06 2 9 1 122 10 580
2020-01-07 0 2 3 120 7 752
2020-01-08 1 11 3 117 8 845
2020-01-09 2 13 1 115 11 380
2020-01-10 0 6 1 106 9 117
2020-01-11 0 9 0 188 8 366
2020-01-12 3 17 3 120 9 658
2020-01-13 0 10 1 268 9 745
2020-01-14 2 5 3 625 12 117
2020-01-15 0 1 0 587 10 280
2020-01-16 0 15 2 597 12 766
2020-01-17 2 17 3 575 11 348
2020-01-18 0 9 2 108 11 823
2020-01-19 0 8 1 132 7 576
2020-01-20 0 2 0 589 7 895
2020-01-21 0 4 1 808 8 119
2020-01-22 4 9 0 507 11 803
2020-01-23 0 1 1 383 6 222
2020-01-24 1 15 1 244 6 849
2020-01-25 0 2 1 110 7 819
2020-01-26 2 13 2 118 38 722
2020-01-27 0 6 3 116 167 649
2020-01-28 2 11 3 108 7 008
2020-01-29 2 13 1 114 7 552
2020-01-30 0 17 0 111 7 527
2020-01-31 1 12 2 106 9 478
* 2019 246 3 411 313 446 3 308 531
Décembre 2019 18 159 26 446 351 248
2019-12-01 0 4 1 277 11 373
2019-12-02 1 14 1 135 11 534
2019-12-03 0 5 1 110 9 010
2019-12-04 0 4 2 106 7 741
2019-12-05 0 6 0 330 8 461
2019-12-06 3 13 1 335 12 098
2019-12-07 0 4 0 215 16 251
2019-12-08 0 0 2 114 35 635
2019-12-09 4 16 3 170 9 809
2019-12-10 1 4 0 112 11 124
2019-12-11 0 5 1 299 9 463
2019-12-12 0 3 1 306 9 544
2019-12-13 0 2 0 366 8 347
2019-12-14 0 3 0 446 11 186
2019-12-15 1 13 0 367 10 258
2019-12-16 2 14 0 109 9 322
2019-12-17 0 13 0 127 9 034
2019-12-18 1 5 0 233 9 507
2019-12-19 1 2 4 112 10 126
2019-12-20 0 0 0 104 9 567
2019-12-21 0 6 1 116 10 009
2019-12-22 0 0 1 105 10 019
2019-12-23 0 0 0 125 10 592
2019-12-24 0 2 0 127 11 029
2019-12-25 0 0 0 112 10 531
2019-12-26 0 1 0 138 11 502
2019-12-27 0 3 0 113 14 168
2019-12-28 0 0 4 115 20 305
2019-12-29 4 5 1 119 11 114
2019-12-30 0 7 1 127 5 225
2019-12-31 0 5 1 125 7 364
Novembre 2019 16 245 33 325 524 135
2019-11-01 1 5 3 104 6 570
2019-11-02 0 8 0 112 5 937
2019-11-03 5 17 2 103 5 135
2019-11-04 0 13 4 108 4 364
2019-11-05 1 7 1 101 4 644
2019-11-06 0 19 0 100 7 049
2019-11-07 0 16 0 107 5 602
2019-11-08 0 7 2 100 5 473
2019-11-09 0 10 2 115 4 378
2019-11-10 0 14 1 113 5 596
2019-11-11 2 6 0 98 4 288
2019-11-12 0 12 0 131 4 467
2019-11-13 0 9 1 114 5 320
2019-11-14 1 6 1 125 6 683
2019-11-15 1 13 1 120 4 926
2019-11-16 0 8 0 163 6 256
2019-11-17 0 3 0 134 5 852
2019-11-18 0 1 1 107 5 431
2019-11-19 0 9 4 99 4 758
2019-11-20 1 11 1 102 3 814
2019-11-21 0 6 0 117 9 376
2019-11-22 0 8 0 112 11 663
2019-11-23 0 6 0 101 8 399
2019-11-24 0 4 1 109 9 641
2019-11-25 0 2 2 112 8 759
2019-11-26 2 2 0 114 56 347
2019-11-27 2 6 1 111 123 100
2019-11-28 0 3 1 112 10 114
2019-11-29 0 8 2 110 67 835
2019-11-30 0 6 2 325 112 358
Octobre 2019 24 272 59 121 189 762
Septembre 2019 25 386 54 141 376 708
2019-09-01 1 9 2 105 6 240
2019-09-02 2 23 0 99 4 858
2019-09-03 0 2 3 113 5 936
2019-09-04 1 23 3 106 6 478
2019-09-05 1 13 2 101 4 820
2019-09-06 0 19 1 107 6 729
2019-09-07 1 7 1 101 5 312
2019-09-08 2 30 3 112 7 337
2019-09-09 0 11 1 102 5 572
2019-09-10 0 11 0 100 7 902
2019-09-11 0 19 4 106 7 070
2019-09-12 0 9 1 93 5 907
2019-09-13 0 17 1 104 5 766
2019-09-14 1 20 1 106 8 380
2019-09-15 1 21 1 99 8 495
2019-09-16 0 10 3 103 4 957
2019-09-17 0 4 3 101 4 911
2019-09-18 1 7 3 123 86 629
2019-09-19 0 12 0 124 109 596
2019-09-20 0 17 2 141 8 262
2019-09-21 0 10 0 140 7 838
2019-09-22 1 6 2 112 6 839
2019-09-23 6 10 3 97 8 328
2019-09-24 1 9 3 94 5 944
2019-09-25 0 8 0 97 4 935
2019-09-26 0 12 4 97 6 015
2019-09-27 2 11 0 99 7 899
2019-09-28 3 18 4 99 4 761
2019-09-29 1 9 2 92 4 842
2019-09-30 0 9 1 98 8 150
Août 2019 22 257 31 122 225 760
Juillet 2019 24 281 62 149 190 301
2019-07-01 4 24 0 104 8 142
2019-07-02 2 16 0 100 8 838
2019-07-03 0 5 0 95 8 928
2019-07-04 0 8 0 91 9 284
2019-07-05 1 10 1 91 6 175
2019-07-06 0 3 0 83 4 015
2019-07-07 0 3 0 89 3 603
2019-07-08 0 20 1 83 4 139
2019-07-09 0 11 0 90 7 781
2019-07-10 1 12 1 84 9 897
2019-07-11 0 15 0 91 7 893
2019-07-12 1 10 0 94 4 561
2019-07-13 0 1 0 88 3 908
2019-07-14 0 4 0 88 7 782
2019-07-15 0 8 0 92 8 996
2019-07-16 0 0 0 84 6 713
2019-07-17 0 7 1 92 7 822
2019-07-18 1 7 1 131 5 964
2019-07-19 3 17 0 88 3 871
2019-07-20 0 7 1 86 4 460
2019-07-21 0 6 1 149 3 654
2019-07-22 1 6 0 116 4 333
2019-07-23 0 3 0 124 2 777
2019-07-24 0 0 0 108 5 144
2019-07-25 1 6 8 136 6 264
2019-07-26 0 7 14 131 6 609
2019-07-27 0 6 4 131 6 579
2019-07-28 0 10 6 129 5 658
2019-07-29 1 17 9 110 5 459
2019-07-30 7 10 6 134 5 038
2019-07-31 1 22 8 142 6 014
Juin 2019 11 171 3 112 246 519
Mai 2019 23 311 10 167 218 891
2019-05-01 0 0 0 42 7 579
2019-05-02 1 11 0 51 5 081
2019-05-03 1 30 0 46 4 550
2019-05-04 2 30 2 68 9 688
2019-05-05 2 23 0 62 9 610
2019-05-06 0 14 0 63 6 169
2019-05-07 0 7 0 52 3 798
2019-05-08 1 9 0 91 6 925
2019-05-09 1 9 1 98 10 005
2019-05-10 1 8 1 45 9 905
2019-05-11 7 14 0 46 10 729
2019-05-12 0 10 1 136 10 508
2019-05-13 1 10 0 167 10 276
2019-05-14 0 1 1 165 13 350
2019-05-15 0 11 1 129 11 534
2019-05-16 0 18 0 132 11 759
2019-05-17 0 8 0 99 8 749
2019-05-18 1 12 0 104 3 904
2019-05-19 1 4 0 27 2 513
2019-05-20 2 14 1 30 3 181
2019-05-21 0 11 0 29 2 830
2019-05-22 0 8 0 121 4 397
2019-05-23 0 10 0 120 5 497
2019-05-24 0 3 0 115 10 400
2019-05-25 0 10 0 104 7 847
2019-05-26 0 5 0 102 6 183
2019-05-27 2 9 0 107 8 783
2019-05-28 0 8 0 98 4 284
2019-05-29 0 2 1 102 3 072
2019-05-30 0 0 0 91 2 845
2019-05-31 0 2 1 93 2 940
Avril 2019 21 294 9 174 311 459
Mars 2019 22 372 16 142 344 146
Février 2019 18 288 4 110 142 132
Janvier 2019 22 375 6 113 187 470
* 2018 338 6 176 81 641 2 624 946
Décembre 2018 43 306 8 253 421 582
Novembre 2018 26 467 9 641 383 363
Octobre 2018 34 527 6 321 248 725
Septembre 2018 34 641 10 127 216 306
2018-09-01 0 20 0 24 4 424
2018-09-02 0 20 0 65 4 793
2018-09-03 3 22 0 85 7 578
2018-09-04 0 24 0 84 8 791
2018-09-05 1 20 0 84 9 905
2018-09-06 0 36 1 83 11 031
2018-09-07 1 20 0 87 10 613
2018-09-08 5 19 0 83 13 818
2018-09-09 0 26 0 92 9 656
2018-09-10 0 27 1 20 3 224
2018-09-11 4 21 1 27 4 264
2018-09-12 1 51 1 24 2 429
2018-09-13 3 46 2 20 7 949
2018-09-14 1 20 0 91 11 369
2018-09-15 0 14 0 95 9 802
2018-09-16 1 34 0 104 6 636
2018-09-17 0 20 0 94 6 787
2018-09-18 0 13 0 99 5 082
2018-09-19 1 16 0 101 8 725
2018-09-20 3 10 1 105 5 461
2018-09-21 2 27 1 93 5 926
2018-09-22 1 28 0 115 6 599
2018-09-23 0 15 0 102 6 921
2018-09-24 1 14 1 103 6 887
2018-09-25 0 17 0 114 7 190
2018-09-26 1 10 0 111 7 736
2018-09-27 0 14 0 116 7 667
2018-09-28 4 13 0 127 6 767
2018-09-29 0 7 1 99 2 850
2018-09-30 1 17 0 36 5 426
Août 2018 32 583 16 101 188 648
2018-08-01 0 26 0 98 6 784
2018-08-02 0 29 0 101 6 795
2018-08-03 0 11 0 93 6 370
2018-08-04 5 19 1 90 6 653
2018-08-05 4 23 0 93 6 519
2018-08-06 0 24 0 95 6 142
2018-08-07 2 23 1 94 5 013
2018-08-08 0 18 0 93 6 325
2018-08-09 1 9 0 98 6 608
2018-08-10 1 13 1 101 6 723
2018-08-11 0 17 1 94 6 721
2018-08-12 1 9 2 92 6 116
2018-08-13 2 19 0 93 6 356
2018-08-14 0 5 0 90 6 043
2018-08-15 1 16 0 93 6 200
2018-08-16 1 34 0 89 6 859
2018-08-17 0 25 0 86 5 971
2018-08-18 0 27 1 90 6 101
2018-08-19 4 24 0 94 6 672
2018-08-20 0 10 1 83 6 150
2018-08-21 1 9 2 93 5 405
2018-08-22 1 24 0 90 4 343
2018-08-23 3 23 3 89 5 993
2018-08-24 1 54 3 92 7 389
2018-08-25 0 13 0 84 5 312
2018-08-26 0 3 0 83 5 702
2018-08-27 0 9 0 82 5 196
2018-08-28 2 10 0 84 5 401
2018-08-29 1 8 0 82 4 297
2018-08-30 1 19 0 27 4 663
2018-08-31 0 30 0 22 7 826
Juillet 2018 21 386 3 104 182 475
2018-07-01 0 17 0 98 5 851
2018-07-02 0 3 1 93 5 331
2018-07-03 0 9 0 102 6 039
2018-07-04 3 21 0 95 8 377
2018-07-05 0 5 0 89 5 211
2018-07-06 5 16 0 94 5 550
2018-07-07 0 10 0 92 5 422
2018-07-08 0 12 0 94 7 624
2018-07-09 1 11 1 93 5 229
2018-07-10 1 8 0 93 5 538
2018-07-11 0 19 0 86 5 102
2018-07-12 0 9 1 84 4 916
2018-07-13 0 17 0 82 5 453
2018-07-14 0 9 0 90 4 210
2018-07-15 0 7 0 82 5 017
2018-07-16 0 26 0 90 8 111
2018-07-17 1 19 0 102 5 632
2018-07-18 4 27 0 102 6 009
2018-07-19 1 28 0 99 6 343
2018-07-20 1 15 0 104 6 087
2018-07-21 1 13 0 93 6 072
2018-07-22 1 24 0 91 5 850
2018-07-23 0 12 0 97 6 595
2018-07-24 0 5 0 94 4 057
2018-07-25 0 5 0 96 6 576
2018-07-26 1 2 0 92 6 460
2018-07-27 0 11 0 89 6 309
2018-07-28 0 4 0 91 6 042
2018-07-29 0 5 0 93 5 366
2018-07-30 1 4 0 94 6 266
2018-07-31 0 13 0 87 5 830
Juin 2018 31 442 3 110 213 303
Mai 2018 21 422 4 107 174 393
2018-05-01 2 18 0 85 4 793
2018-05-02 0 25 0 84 5 424
2018-05-03 0 9 0 92 5 981
2018-05-04 0 25 0 86 3 613
2018-05-05 0 11 0 103 4 133
2018-05-06 2 6 0 98 5 788
2018-05-07 0 7 0 90 5 220
2018-05-08 2 35 2 96 5 516
2018-05-09 1 10 0 87 4 205
2018-05-10 0 11 0 91 4 954
2018-05-11 0 3 0 97 4 854
2018-05-12 1 15 0 92 4 186
2018-05-13 1 6 0 96 5 766
2018-05-14 1 15 0 90 6 028
2018-05-15 1 18 0 88 6 274
2018-05-16 0 13 0 91 5 693
2018-05-17 0 13 0 89 5 142
2018-05-18 0 14 0 90 4 921
2018-05-19 1 14 0 106 4 998
2018-05-20 5 19 0 107 6 617
2018-05-21 0 10 0 104 5 875
2018-05-22 0 6 0 100 7 031
2018-05-23 0 13 0 100 6 653
2018-05-24 1 5 0 97 6 315
2018-05-25 1 7 0 96 6 038
2018-05-26 0 11 0 103 5 731
2018-05-27 0 7 0 96 5 909
2018-05-28 2 31 0 106 6 887
2018-05-29 0 27 0 101 6 749
2018-05-30 0 10 2 92 6 528
2018-05-31 0 8 0 92 6 571
Avril 2018 25 564 5 104 159 849
Mars 2018 20 634 4 96 152 933
Février 2018 25 631 7 93 121 912
Janvier 2018 26 573 6 94 161 457
* 2017 346 6 100 56 180 1 675 168
Décembre 2017 37 499 6 91 136 063
Novembre 2017 37 675 6 93 169 670
Octobre 2017 15 426 2 93 151 449
2017-10-01 1 16 0 71 4 799
2017-10-02 0 9 0 83 4 529
2017-10-03 0 8 0 80 5 172
2017-10-04 0 7 0 86 4 363
2017-10-05 0 8 0 89 5 192
2017-10-06 0 6 0 85 4 811
2017-10-07 0 7 0 78 4 810
2017-10-08 8 24 0 81 5 378
2017-10-09 0 17 0 93 4 986
2017-10-10 1 21 0 74 4 632
2017-10-11 1 25 0 67 4 328
2017-10-12 0 8 1 76 4 661
2017-10-13 0 13 0 67 3 429
2017-10-14 0 14 0 67 24 056
2017-10-15 1 17 0 67 3 713
2017-10-16 0 18 0 72 3 995
2017-10-17 2 7 0 74 3 028
2017-10-18 0 19 0 70 3 977
2017-10-19 0 20 0 71 3 742
2017-10-20 0 23 0 70 4 235
2017-10-21 0 9 1 69 3 775
2017-10-22 0 12 0 74 3 882
2017-10-23 1 15 0 72 3 999
2017-10-24 0 18 0 83 3 576
2017-10-25 0 13 0 78 4 578
2017-10-26 0 24 0 83 4 418
2017-10-27 0 16 0 83 4 128
2017-10-28 0 16 0 79 3 950
2017-10-29 0 8 0 79 4 420
2017-10-30 0 7 0 76 3 927
2017-10-31 0 1 0 73 2 960
Septembre 2017 28 548 5 94 135 543
2017-09-01 0 19 0 85 4 606
2017-09-02 6 27 1 81 5 694
2017-09-03 0 13 0 80 4 704
2017-09-04 0 16 0 73 3 541
2017-09-05 1 31 0 70 4 047
2017-09-06 0 12 0 74 8 718
2017-09-07 1 10 0 72 3 635
2017-09-08 2 11 0 73 3 838
2017-09-09 0 25 0 73 3 496
2017-09-10 1 20 1 77 4 556
2017-09-11 3 16 0 94 4 101
2017-09-12 0 23 0 80 4 866
2017-09-13 1 11 1 76 4 485
2017-09-14 0 12 0 79 4 369
2017-09-15 2 27 1 85 4 589
2017-09-16 1 10 1 81 3 899
2017-09-17 0 28 0 85 4 424
2017-09-18 2 29 0 79 5 214
2017-09-19 1 25 0 76 4 323
2017-09-20 2 9 0 74 4 217
2017-09-21 1 13 0 75 4 677
2017-09-22 0 19 0 77 3 928
2017-09-23 0 15 0 71 4 378
2017-09-24 1 23 0 75 4 483
2017-09-25 0 32 0 82 4 657
2017-09-26 0 21 0 81 4 174
2017-09-27 0 13 0 76 4 562
2017-09-28 0 8 0 83 4 632
2017-09-29 3 23 0 79 4 537
2017-09-30 0 7 0 77 4 193
Août 2017 29 384 6 99 148 097
Juillet 2017 25 490 5 87 176 472
Juin 2017 33 603 4 89 156 248
Mai 2017 26 470 2 99 181 189
Avril 2017 31 490 5 180 139 896
Mars 2017 27 432 3 119 90 981
Février 2017 31 587 7 87 74 924
Janvier 2017 27 496 5 80 114 636
* 2016 389 7 721 79 245 2 075 605
Décembre 2016 34 533 2 170 118 206
Novembre 2016 34 586 6 245 122 991
2016-11-01 0 34 0 79 3 768
2016-11-02 1 38 0 64 4 674
2016-11-03 0 17 0 50 3 172
2016-11-04 3 43 1 52 3 641
2016-11-05 0 23 1 54 4 697
2016-11-06 2 19 0 50 3 669
2016-11-07 1 24 0 81 3 628
2016-11-08 1 15 0 83 5 212
2016-11-09 0 11 1 52 2 529
2016-11-10 0 16 0 33 3 252
2016-11-11 1 17 0 66 3 953
2016-11-12 3 25 1 66 4 075
2016-11-13 1 4 0 62 4 031
2016-11-14 2 21 0 55 3 434
2016-11-15 0 20 0 245 4 465
2016-11-16 3 26 1 70 4 516
2016-11-17 0 26 0 64 4 350
2016-11-18 1 18 0 70 3 943
2016-11-19 0 16 0 68 4 222
2016-11-20 3 21 0 65 3 980
2016-11-21 0 14 0 60 3 884
2016-11-22 0 15 0 48 3 315
2016-11-23 1 14 0 86 4 910
2016-11-24 1 13 0 64 4 600
2016-11-25 4 30 0 68 4 613
2016-11-26 1 12 0 66 5 051
2016-11-27 3 14 1 59 4 515
2016-11-28 1 6 0 59 3 726
2016-11-29 1 29 0 61 5 179
2016-11-30 0 5 0 75 3 987
Octobre 2016 43 726 7 191 160 217
Septembre 2016 26 657 9 85 157 449
2016-09-01 0 6 0 74 4 766
2016-09-02 0 11 0 20 3 957
2016-09-03 2 15 0 24 5 392
2016-09-04 2 24 2 27 6 016
2016-09-05 1 48 0 60 6 378
2016-09-06 0 19 0 64 16 148
2016-09-07 0 25 0 29 5 865
2016-09-08 0 8 1 28 2 521
2016-09-09 2 25 2 66 4 139
2016-09-10 1 13 0 57 3 591
2016-09-11 0 20 0 52 3 703
2016-09-12 5 46 2 56 3 958
2016-09-13 2 32 0 56 4 310
2016-09-14 1 36 0 57 3 961
2016-09-15 0 20 0 54 3 639
2016-09-16 0 8 0 85 5 882
2016-09-17 1 17 1 63 4 479
2016-09-18 1 37 0 55 4 935
2016-09-19 1 18 0 55 4 541
2016-09-20 2 43 0 53 6 073
2016-09-21 0 23 0 43 3 742
2016-09-22 1 18 1 53 4 611
2016-09-23 0 15 0 70 4 243
2016-09-24 0 18 0 70 5 283
2016-09-25 2 19 0 59 15 111
2016-09-26 0 12 0 62 4 202
2016-09-27 1 10 0 55 4 151
2016-09-28 1 28 0 55 4 096
2016-09-29 0 24 0 58 3 581
2016-09-30 0 19 0 55 4 175
Août 2016 31 721 9 114 169 873
Juillet 2016 19 513 3 58 166 690
2016-07-01 0 12 0 45 7 913
2016-07-02 1 14 0 53 5 460
2016-07-03 0 12 0 43 5 640
2016-07-04 0 21 0 51 5 125
2016-07-05 0 19 0 53 19 299
2016-07-06 1 26 0 47 4 798
2016-07-07 1 14 1 45 5 226
2016-07-08 0 17 0 29 4 376
2016-07-09 2 9 1 33 3 581
2016-07-10 0 17 0 30 3 953
2016-07-11 0 19 0 33 3 994
2016-07-12 0 6 0 34 4 003
2016-07-13 0 6 0 29 3 703
2016-07-14 0 9 0 36 3 393
2016-07-15 0 12 0 46 3 985
2016-07-16 0 8 0 49 3 862
2016-07-17 1 15 0 46 6 224
2016-07-18 3 49 0 48 9 490
2016-07-19 5 19 0 58 12 133
2016-07-20 1 27 0 53 6 421
2016-07-21 0 15 0 44 4 051
2016-07-22 1 24 0 35 2 980
2016-07-23 0 9 0 46 2 786
2016-07-24 0 5 0 50 3 313
2016-07-25 0 18 0 48 3 778
2016-07-26 1 16 0 49 3 234
2016-07-27 1 13 1 45 3 378
2016-07-28 0 28 0 42 4 140
2016-07-29 0 14 0 54 4 296
2016-07-30 0 16 0 49 6 668
2016-07-31 1 24 0 56 5 487
Juin 2016 30 565 5 53 211 715
Mai 2016 40 1 116 8 94 166 514
Avril 2016 27 529 7 65 155 208
Mars 2016 35 513 11 88 224 056
Février 2016 35 640 4 96 192 454
Janvier 2016 35 622 8 95 230 232
* 2015 373 6 684 79 100 1 549 803
Décembre 2015 28 499 7 68 140 303
Novembre 2015 40 724 5 35 146 607
Octobre 2015 32 760 10 84 227 528
Septembre 2015 40 948 13 100 169 012
2015-09-01 3 40 0 23 4 812
2015-09-02 0 52 2 72 5 791
2015-09-03 0 21 0 16 4 722
2015-09-04 2 20 1 67 4 506
2015-09-05 2 40 2 79 8 360
2015-09-06 1 58 0 21 4 206
2015-09-07 0 27 1 17 3 924
2015-09-08 6 44 0 100 9 516
2015-09-09 1 26 0 74 6 952
2015-09-10 0 37 1 73 5 976
2015-09-11 0 43 0 80 7 212
2015-09-12 0 23 0 81 5 584
2015-09-13 0 30 0 74 5 189
2015-09-14 1 25 1 19 3 457
2015-09-15 2 18 0 20 2 649
2015-09-16 1 23 0 62 4 565
2015-09-17 0 10 0 59 5 055
2015-09-18 0 36 0 72 4 251
2015-09-19 1 36 0 73 4 774
2015-09-20 1 41 1 69 4 977
2015-09-21 1 23 0 75 11 093
2015-09-22 6 28 1 22 3 585
2015-09-23 0 33 0 65 5 593
2015-09-24 1 42 0 71 5 489
2015-09-25 3 24 0 17 3 955
2015-09-26 2 25 1 77 5 774
2015-09-27 3 47 1 88 6 711
2015-09-28 2 34 0 79 7 065
2015-09-29 0 6 0 27 5 105
2015-09-30 1 36 1 85 8 164
Août 2015 36 566 12 61 119 954
Juillet 2015 29 462 7 31 89 666
Juin 2015 24 453 5 30 112 317
Mai 2015 30 390 2 24 73 874
2015-05-01 0 17 0 15 2 030
2015-05-02 1 16 0 16 2 557
2015-05-03 1 29 0 18 2 371
2015-05-04 2 17 0 21 1 947
2015-05-05 0 2 0 16 1 636
2015-05-06 0 8 0 15 2 047
2015-05-07 0 6 0 14 2 022
2015-05-08 0 3 0 15 1 847
2015-05-09 0 5 0 18 1 813
2015-05-10 2 5 0 13 1 887
2015-05-11 0 6 0 14 1 631
2015-05-12 2 20 1 13 2 423
2015-05-13 0 11 0 13 2 977
2015-05-14 0 11 0 24 3 549
2015-05-15 2 11 0 18 2 773
2015-05-16 1 3 1 15 2 585
2015-05-17 0 6 0 12 2 212
2015-05-18 4 29 0 14 2 715
2015-05-19 0 8 0 15 1 683
2015-05-20 0 3 0 12 1 911
2015-05-21 1 4 0 13 2 338
2015-05-22 1 8 0 12 1 807
2015-05-23 1 6 0 15 2 186
2015-05-24 2 15 0 19 4 554
2015-05-25 1 21 0 24 2 499
2015-05-26 2 20 0 18 2 489
2015-05-27 0 21 0 17 1 695
2015-05-28 3 38 0 14 2 854
2015-05-29 4 23 0 15 4 584
2015-05-30 0 13 0 16 1 591
2015-05-31 0 5 0 11 2 661
Avril 2015 29 408 4 25 95 371
Mars 2015 38 550 7 37 130 116
Février 2015 15 434 2 24 123 854
Janvier 2015 32 490 5 44 121 201
2015-01-01 2 23 0 19 3 144
2015-01-02 0 16 0 15 4 048
2015-01-03 0 15 0 22 3 759
2015-01-04 0 4 0 19 3 288
2015-01-05 2 20 0 15 4 716
2015-01-06 0 5 0 22 4 665
2015-01-07 7 37 1 20 4 235
2015-01-08 0 17 0 18 5 827
2015-01-09 2 10 0 21 3 910
2015-01-10 0 16 0 18 3 671
2015-01-11 0 8 0 20 4 832
2015-01-12 4 17 0 21 3 973
2015-01-13 2 14 0 14 2 410
2015-01-14 0 16 0 15 3 118
2015-01-15 2 38 1 17 3 532
2015-01-16 0 23 0 18 3 617
2015-01-17 0 13 0 17 2 699
2015-01-18 2 13 0 18 3 678
2015-01-19 5 16 0 16 3 676
2015-01-20 0 12 1 19 3 624
2015-01-21 1 12 0 20 2 778
2015-01-22 0 8 1 16 6 250
2015-01-23 1 18 0 18 2 801
2015-01-24 0 14 0 44 3 349
2015-01-25 0 8 0 18 6 193
2015-01-26 0 25 0 21 4 761
2015-01-27 1 23 1 18 6 578
2015-01-28 0 4 0 16 2 032
2015-01-29 0 15 0 15 3 742
2015-01-30 0 16 0 13 2 970
2015-01-31 1 14 0 14 3 325
* 2014 428 7 364 58 58 2 478 164
Décembre 2014 24 360 4 33 191 610
Novembre 2014 37 572 7 46 525 858
Octobre 2014 45 928 8 58 364 915
Septembre 2014 24 549 8 32 162 413
Août 2014 17 251 4 27 191 624
2014-08-01 0 11 0 17 4 869
2014-08-02 2 8 0 20 4 008
2014-08-03 5 21 0 22 3 930
2014-08-04 0 13 0 27 7 210
2014-08-05 2 12 1 24 7 177
2014-08-06 0 16 0 27 6 701
2014-08-07 0 7 0 25 3 965
2014-08-08 0 13 0 27 6 141
2014-08-09 0 2 0 21 4 733
2014-08-10 1 21 1 23 5 317
2014-08-11 0 0 0 22 5 671
2014-08-12 0 7 0 24 6 599
2014-08-13 0 1 0 15 4 833
2014-08-14 0 1 1 17 5 819
2014-08-15 0 0 0 18 6 630
2014-08-16 1 9 0 21 6 366
2014-08-17 0 11 0 19 6 206
2014-08-18 0 3 0 19 7 614
2014-08-19 1 2 0 25 6 728
2014-08-20 1 6 0 27 8 084
2014-08-21 0 8 0 27 9 580
2014-08-22 1 6 0 25 9 362
2014-08-23 0 7 0 22 6 382
2014-08-24 2 6 0 22 5 960
2014-08-25 0 5 0 25 5 413
2014-08-26 0 9 0 24 6 547
2014-08-27 0 5 0 23 5 741
2014-08-28 0 6 0 21 6 634
2014-08-29 1 9 1 25 5 677
2014-08-30 0 3 0 22 6 121
2014-08-31 0 23 0 23 5 606
Juillet 2014 25 369 3 30 236 312
Juin 2014 29 602 3 32 220 918
Mai 2014 34 842 6 29 157 174
Avril 2014 45 662 1 25 104 486
Mars 2014 32 595 4 26 120 439
Février 2014 24 660 5 28 102 996
Janvier 2014 92 974 5 33 99 419
2014-01-01 4 34 0 24 3 312
2014-01-02 0 50 0 23 4 511
2014-01-03 0 43 0 20 2 895
2014-01-04 3 41 0 17 4 764
2014-01-05 1 17 0 25 4 039
2014-01-06 4 36 0 25 5 158
2014-01-07 48 63 0 17 3 220
2014-01-08 1 19 0 24 3 415
2014-01-09 0 34 0 27 4 672
2014-01-10 2 27 1 25 3 536
2014-01-11 1 18 0 33 2 773
2014-01-12 0 29 0 17 4 429
2014-01-13 1 18 0 15 2 791
2014-01-14 2 30 0 17 2 962
2014-01-15 3 21 0 15 2 763
2014-01-16 1 18 0 11 2 260
2014-01-17 1 13 0 13 2 305
2014-01-18 0 20 0 13 2 086
2014-01-19 0 26 0 11 1 961
2014-01-20 6 56 0 13 2 554
2014-01-21 0 38 0 16 2 432
2014-01-22 0 14 0 20 4 564
2014-01-23 0 20 1 21 3 405
2014-01-24 1 16 0 20 2 979
2014-01-25 1 31 1 14 2 094
2014-01-26 3 38 0 14 3 666
2014-01-27 1 43 1 16 3 439
2014-01-28 1 43 1 15 2 432
2014-01-29 3 34 0 15 2 213
2014-01-30 2 36 0 16 3 217
2014-01-31 2 48 0 17 2 572
* 2013 408 8 887 76 89 1 597 727
Décembre 2013 36 785 2 79 132 305
Novembre 2013 36 751 8 29 141 119
Octobre 2013 37 683 10 26 116 570
Septembre 2013 33 723 15 29 160 779
Août 2013 20 356 4 30 113 960
Juillet 2013 21 331 2 24 120 164
Juin 2013 40 731 5 34 119 512
Mai 2013 34 881 3 47 157 484
Avril 2013 38 799 8 33 124 279
2013-04-01 4 20 0 24 3 359
2013-04-02 1 47 0 21 4 467
2013-04-03 0 45 0 23 3 233
2013-04-04 0 33 0 16 2 834
2013-04-05 0 17 0 19 3 016
2013-04-06 2 17 1 21 4 302
2013-04-07 1 58 0 33 4 201
2013-04-08 0 22 0 17 4 107
2013-04-09 3 42 0 18 3 737
2013-04-10 1 19 0 16 3 054
2013-04-11 2 20 0 18 2 700
2013-04-12 2 22 1 17 2 910
2013-04-13 0 8 2 17 2 288
2013-04-14 0 22 0 16 2 273
2013-04-15 0 18 0 20 2 553
2013-04-16 2 35 2 23 4 161
2013-04-17 3 14 0 15 2 830
2013-04-18 0 20 0 21 2 765
2013-04-19 0 13 0 22 3 929
2013-04-20 1 9 0 17 4 630
2013-04-21 3 33 0 15 4 446
2013-04-22 5 26 1 18 5 097
2013-04-23 1 41 0 26 5 957
2013-04-24 2 35 0 21 7 277
2013-04-25 1 26 0 22 3 866
2013-04-26 1 35 0 22 3 466
2013-04-27 1 41 1 19 7 601
2013-04-28 1 28 0 26 7 931
2013-04-29 1 26 0 19 6 992
2013-04-30 0 7 0 18 4 297
Mars 2013 40 1 111 9 62 147 762
Février 2013 32 838 5 79 125 299
2013-02-01 2 20 1 38 4 770
2013-02-02 0 12 0 40 3 753
2013-02-03 3 19 0 33 3 610
2013-02-04 0 34 0 41 4 908
2013-02-05 2 22 0 22 4 094
2013-02-06 0 19 0 20 3 240
2013-02-07 0 22 1 79 4 987
2013-02-08 0 26 0 16 2 458
2013-02-09 0 34 0 14 2 084
2013-02-10 0 16 0 16 2 327
2013-02-11 3 27 0 61 4 020
2013-02-12 5 48 1 47 4 064
2013-02-13 1 79 0 37 3 898
2013-02-14 3 74 1 34 3 452
2013-02-15 1 45 0 31 3 283
2013-02-16 1 31 1 37 3 089
2013-02-17 3 30 0 45 3 996
2013-02-18 1 42 0 56 3 300
2013-02-19 1 43 0 52 5 836
2013-02-20 0 24 0 43 5 131
2013-02-21 0 33 0 52 5 984
2013-02-22 1 20 0 44 4 402
2013-02-23 0 17 0 49 3 514
2013-02-24 1 18 0 20 5 210
2013-02-25 2 21 0 23 9 279
2013-02-26 0 18 0 35 9 894
2013-02-27 2 20 0 40 5 096
2013-02-28 0 24 0 52 5 620
Janvier 2013 41 898 5 89 138 494
* 2012 446 10 690 67 157 1 274 957
Décembre 2012 57 1 411 4 45 150 137
Novembre 2012 46 1 137 8 25 112 399
Octobre 2012 45 1 068 7 25 80 970
Septembre 2012 37 876 11 38 107 023
Août 2012 30 595 5 41 95 032
Juillet 2012 24 563 2 157 78 638
Juin 2012 39 984 10 33 88 620
Mai 2012 22 703 5 26 77 701
Avril 2012 33 714 4 33 95 151
Mars 2012 35 977 5 48 160 160
2012-03-01 1 35 0 27 6 158
2012-03-02 3 13 2 26 5 378
2012-03-03 0 18 0 23 5 671
2012-03-04 4 28 1 20 5 358
2012-03-05 4 89 0 29 6 627
2012-03-06 1 45 0 45 6 165
2012-03-07 0 59 0 20 7 932
2012-03-08 3 35 0 46 6 667
2012-03-09 1 33 0 21 6 097
2012-03-10 0 22 0 21 5 441
2012-03-11 1 28 0 25 5 443
2012-03-12 1 20 0 25 5 930
2012-03-13 0 15 0 21 5 416
2012-03-14 2 34 0 48 6 562
2012-03-15 0 17 0 31 4 576
2012-03-16 0 14 0 30 4 508
2012-03-17 1 25 0 25 4 761
2012-03-18 1 39 0 27 5 081
2012-03-19 2 29 0 40 5 719
2012-03-20 2 51 0 24 5 746
2012-03-21 1 42 1 23 4 563
2012-03-22 0 34 0 23 4 276
2012-03-23 1 25 0 18 4 565
2012-03-24 2 38 1 21 4 568
2012-03-25 2 25 0 22 3 868
2012-03-26 1 34 0 21 4 653
2012-03-27 1 41 0 22 3 772
2012-03-28 0 16 0 23 3 667
2012-03-29 0 22 0 27 3 720
2012-03-30 0 20 0 24 3 175
2012-03-31 0 31 0 18 4 097
Février 2012 34 704 5 33 117 877
Janvier 2012 44 958 1 30 111 249
* 2011 822 21 877 118 48 1 861 895
Décembre 2011 68 1 315 7 36 141 929
Novembre 2011 94 1 539 4 36 150 015
Octobre 2011 81 1 597 13 41 169 207
2011-10-01 1 13 0 28 6 004
2011-10-02 1 20 0 20 5 506
2011-10-03 0 91 0 25 7 611
2011-10-04 6 70 3 24 4 912
2011-10-05 5 74 0 23 4 729
2011-10-06 4 81 0 21 5 207
2011-10-07 1 60 0 17 5 128
2011-10-08 3 34 2 18 4 442
2011-10-09 13 67 0 20 6 218
2011-10-10 4 60 0 16 6 297
2011-10-11 1 71 0 21 6 462
2011-10-12 1 31 0 27 5 896
2011-10-13 1 44 0 16 5 869
2011-10-14 1 47 0 19 7 736
2011-10-15 1 22 0 29 4 683
2011-10-16 0 19 0 20 3 832
2011-10-17 10 74 0 20 4 981
2011-10-18 3 56 1 17 5 476
2011-10-19 3 76 0 25 6 145
2011-10-20 3 70 1 19 5 110
2011-10-21 1 34 0 16 4 516
2011-10-22 0 30 1 21 3 856
2011-10-23 3 45 2 41 4 932
2011-10-24 1 49 0 19 4 749
2011-10-25 4 50 0 28 5 342
2011-10-26 1 58 0 27 5 178
2011-10-27 6 118 2 26 7 117
2011-10-28 0 27 0 19 5 048
2011-10-29 1 33 0 21 7 438
2011-10-30 0 18 1 17 4 059
2011-10-31 2 55 0 20 4 728
Septembre 2011 96 1 991 19 24 158 540
Août 2011 68 1 372 16 48 135 201
Juillet 2011 57 1 156 10 30 112 626
Juin 2011 40 1 214 6 31 149 115
2011-06-01 1 32 0 29 5 456
2011-06-02 2 29 0 26 4 171
2011-06-03 1 35 0 19 4 043
2011-06-04 0 20 0 19 4 950
2011-06-05 0 28 2 15 4 322
2011-06-06 3 69 0 17 3 738
2011-06-07 2 48 0 31 4 173
2011-06-08 0 31 0 21 4 038
2011-06-09 0 22 0 28 4 286
2011-06-10 1 43 0 27 5 000
2011-06-11 1 31 0 29 4 509
2011-06-12 2 47 1 24 5 476
2011-06-13 0 28 0 21 5 276
2011-06-14 5 69 0 26 5 102
2011-06-15 0 58 0 17 4 739
2011-06-16 1 56 0 22 7 003
2011-06-17 0 46 0 19 4 024
2011-06-18 0 14 1 26 4 210
2011-06-19 0 27 0 23 4 877
2011-06-20 3 40 0 25 5 373
2011-06-21 2 59 0 22 5 456
2011-06-22 4 76 1 25 4 738
2011-06-23 1 47 0 24 5 119
2011-06-24 2 52 0 20 4 688
2011-06-25 0 18 0 18 4 641
2011-06-26 4 29 0 22 8 721
2011-06-27 1 50 1 21 4 259
2011-06-28 0 40 0 18 4 018
2011-06-29 1 31 0 19 7 555
2011-06-30 3 39 0 19 5 154
Mai 2011 64 1 997 8 39 181 997
Avril 2011 46 1 637 9 38 176 986
2011-04-01 3 85 0 24 5 196
2011-04-02 2 26 0 25 3 181
2011-04-03 1 47 0 22 3 986
2011-04-04 5 87 0 23 5 162
2011-04-05 3 126 0 26 5 929
2011-04-06 2 86 0 30 5 882
2011-04-07 2 66 0 28 5 722
2011-04-08 1 43 0 24 4 364
2011-04-09 0 20 0 30 5 658
2011-04-10 2 18 0 23 5 927
2011-04-11 1 70 0 29 6 508
2011-04-12 2 92 0 16 4 305
2011-04-13 0 60 0 19 3 888
2011-04-14 3 58 2 36 11 355
2011-04-15 1 48 0 26 8 294
2011-04-16 0 22 0 24 5 495
2011-04-17 0 22 0 27 5 056
2011-04-18 1 49 1 38 7 751
2011-04-19 0 41 0 32 8 124
2011-04-20 0 29 1 28 7 842
2011-04-21 2 75 2 29 7 444
2011-04-22 4 72 1 33 6 852
2011-04-23 2 53 0 26 6 996
2011-04-24 3 39 1 32 6 830
2011-04-25 1 54 0 27 5 518
2011-04-26 2 61 0 30 6 064
2011-04-27 1 30 0 22 4 274
2011-04-28 0 71 0 28 4 955
2011-04-29 0 49 0 28 4 772
2011-04-30 2 38 1 24 3 656
Mars 2011 54 2 388 6 31 211 307
Février 2011 59 2 656 5 46 128 248
2011-02-01 3 136 0 46 5 654
2011-02-02 3 121 0 25 5 448
2011-02-03 2 68 0 30 4 573
2011-02-04 2 95 0 22 4 221
2011-02-05 4 54 0 26 3 574
2011-02-06 0 36 0 27 3 427
2011-02-07 5 100 0 30 4 483
2011-02-08 4 139 0 24 4 710
2011-02-09 1 103 0 23 5 418
2011-02-10 1 100 0 22 4 527
2011-02-11 3 116 2 41 4 732
2011-02-12 2 58 0 37 3 823
2011-02-13 1 74 0 36 4 349
2011-02-14 0 118 0 40 4 898
2011-02-15 3 100 0 38 4 914
2011-02-16 0 74 0 32 4 322
2011-02-17 3 82 0 29 4 503
2011-02-18 4 181 0 41 5 880
2011-02-19 0 34 0 22 3 355
2011-02-20 2 50 0 37 3 284
2011-02-21 1 151 1 35 5 505
2011-02-22 1 148 1 35 6 218
2011-02-23 5 132 0 43 5 855
2011-02-24 4 167 0 22 5 961
2011-02-25 0 48 0 19 3 745
2011-02-26 0 17 1 17 2 862
2011-02-27 1 19 0 19 2 743
2011-02-28 4 135 0 22 5 264
Janvier 2011 95 3 015 15 44 146 724
2011-01-01 4 28 1 33 3 209
2011-01-02 3 53 0 27 3 194
2011-01-03 4 120 0 23 4 999
2011-01-04 4 123 0 25 4 781
2011-01-05 2 129 0 36 4 810
2011-01-06 3 97 1 27 4 554
2011-01-07 0 98 0 25 4 909
2011-01-08 1 28 1 20 3 049
2011-01-09 3 61 0 20 3 543
2011-01-10 3 87 0 36 4 897
2011-01-11 1 79 1 25 4 007
2011-01-12 2 149 0 34 5 515
2011-01-13 6 143 3 40 5 584
2011-01-14 5 244 0 29 8 061
2011-01-15 1 41 0 36 4 401
2011-01-16 9 38 0 23 3 832
2011-01-17 2 153 0 44 6 302
2011-01-18 4 85 0 32 5 425
2011-01-19 4 92 0 29 4 997
2011-01-20 5 99 1 25 4 295
2011-01-21 3 75 0 30 4 089
2011-01-22 3 45 1 32 3 479
2011-01-23 1 85 1 32 4 851
2011-01-24 1 79 0 35 4 531
2011-01-25 2 98 0 30 5 112
2011-01-26 4 137 3 25 5 274
2011-01-27 1 118 0 27 5 128
2011-01-28 4 130 1 32 5 328
2011-01-29 1 78 0 25 4 103
2011-01-30 2 58 0 33 3 935
2011-01-31 7 165 1 33 6 530
* 2010 615 23 079 70 91 1 409 620
Décembre 2010 54 2 635 5 43 199 984
2010-12-01 4 200 0 33 5 797
2010-12-02 2 80 0 27 4 428
2010-12-03 0 92 0 23 3 768
2010-12-04 1 50 1 19 2 892
2010-12-05 1 52 0 26 3 390
2010-12-06 0 92 0 29 3 863
2010-12-07 1 113 0 34 4 176
2010-12-08 2 59 0 34 4 663
2010-12-09 1 112 1 30 4 738
2010-12-10 0 81 0 26 4 475
2010-12-11 2 57 0 29 3 894
2010-12-12 2 51 0 42 3 962
2010-12-13 3 63 0 32 4 381
2010-12-14 2 89 0 32 7 458
2010-12-15 2 146 0 32 8 138
2010-12-16 1 120 0 33 13 324
2010-12-17 2 134 0 43 25 752
2010-12-18 1 65 0 17 12 634
2010-12-19 3 59 0 21 14 562
2010-12-20 4 92 1 26 8 417
2010-12-21 1 83 1 24 6 202
2010-12-22 4 109 0 34 8 319
2010-12-23 2 97 0 31 4 509
2010-12-24 0 19 0 17 4 671
2010-12-25 2 33 0 33 4 728
2010-12-26 2 42 0 31 4 717
2010-12-27 3 132 1 41 5 593
2010-12-28 1 78 0 43 4 517
2010-12-29 2 117 0 31 4 767
2010-12-30 2 87 0 24 4 387
2010-12-31 1 31 0 24 2 862
Novembre 2010 59 2 475 6 49 127 779
Octobre 2010 56 2 811 15 58 134 942
Septembre 2010 53 1 528 8 29 95 249
Août 2010 32 1 287 6 33 89 617
Juillet 2010 34 1 637 5 32 97 290
Juin 2010 46 2 137 3 28 109 648
2010-06-01 0 68 0 21 3 537
2010-06-02 1 57 0 17 3 123
2010-06-03 1 75 0 15 4 006
2010-06-04 0 85 0 20 3 645
2010-06-05 0 34 0 20 2 486
2010-06-06 3 30 0 17 2 856
2010-06-07 2 86 0 22 10 278
2010-06-08 0 64 0 18 5 044
2010-06-09 4 159 1 23 4 282
2010-06-10 2 122 0 19 3 974
2010-06-11 2 64 0 23 3 155
2010-06-12 1 20 0 16 3 002
2010-06-13 1 34 0 22 2 837
2010-06-14 1 34 0 25 3 405
2010-06-15 1 74 0 25 3 620
2010-06-16 0 98 0 28 4 159
2010-06-17 1 119 0 23 4 270
2010-06-18 3 81 0 19 3 422
2010-06-19 1 50 0 23 2 451
2010-06-20 1 22 0 19 2 286
2010-06-21 5 64 0 20 2 985
2010-06-22 2 99 1 23 3 730
2010-06-23 2 99 0 23 4 043
2010-06-24 4 128 1 18 4 041
2010-06-25 1 78 0 19 3 593
2010-06-26 0 6 0 15 2 050
2010-06-27 1 31 0 18 2 375
2010-06-28 4 99 0 21 3 892
2010-06-29 0 67 0 20 3 134
2010-06-30 2 90 0 23 3 967
Mai 2010 50 1 497 6 28 99 050
Avril 2010 45 1 888 3 26 102 219
2010-04-01 3 88 0 18 4 705
2010-04-02 1 97 1 17 5 127
2010-04-03 0 48 1 16 4 067
2010-04-04 0 25 0 17 3 540
2010-04-05 2 54 0 15 3 258
2010-04-06 0 69 0 19 3 639
2010-04-07 1 67 0 19 3 590
2010-04-08 5 109 0 25 4 043
2010-04-09 2 117 0 22 4 430
2010-04-10 0 44 0 17 2 821
2010-04-11 2 71 0 18 3 408
2010-04-12 2 101 0 21 4 509
2010-04-13 1 64 0 16 3 272
2010-04-14 2 56 0 19 3 587
2010-04-15 2 42 1 20 3 071
2010-04-16 2 48 0 18 3 184
2010-04-17 0 37 0 17 2 301
2010-04-18 0 20 0 17 2 342
2010-04-19 1 45 0 22 3 138
2010-04-20 2 70 0 18 3 550
2010-04-21 1 33 0 16 2 917
2010-04-22 2 70 0 26 3 255
2010-04-23 0 60 0 22 3 359
2010-04-24 4 34 0 16 2 265
2010-04-25 4 71 0 18 2 831
2010-04-26 1 105 0 23 3 707
2010-04-27 3 68 0 19 2 863
2010-04-28 0 43 0 20 3 119
2010-04-29 0 61 0 16 3 058
2010-04-30 2 71 0 15 3 263
Mars 2010 53 1 534 2 46 118 201
Février 2010 65 1 574 4 91 117 274
2010-02-01 0 89 0 38 4 425
2010-02-02 2 76 0 35 3 733
2010-02-03 4 114 1 16 4 361
2010-02-04 0 62 0 42 4 425
2010-02-05 2 55 0 36 3 911
2010-02-06 1 39 0 14 3 117
2010-02-07 3 40 0 27 3 953
2010-02-08 2 89 0 35 4 078
2010-02-09 5 79 0 28 4 799
2010-02-10 4 55 1 27 4 888
2010-02-11 2 88 0 23 4 506
2010-02-12 4 56 0 26 4 178
2010-02-13 1 31 0 27 4 062
2010-02-14 1 36 0 30 4 023
2010-02-15 2 34 0 23 3 907
2010-02-16 4 76 1 18 4 688
2010-02-17 1 17 0 31 3 201
2010-02-18 5 61 1 26 4 183
2010-02-19 4 59 0 36 4 081
2010-02-20 1 40 0 24 3 219
2010-02-21 1 21 0 15 2 977
2010-02-22 1 54 0 28 3 653
2010-02-23 1 57 0 23 4 114
2010-02-24 4 87 0 24 4 415
2010-02-25 2 44 0 19 4 413
2010-02-26 3 57 0 49 4 280
2010-02-27 2 41 0 91 8 619
2010-02-28 3 17 0 36 3 065
Janvier 2010 68 2 076 7 43 118 367
2010-01-01 1 46 0 20 3 913
2010-01-02 4 31 1 32 3 858
2010-01-03 2 36 0 28 3 215
2010-01-04 4 63 0 32 3 563
2010-01-05 6 83 1 14 3 833
2010-01-06 1 75 0 29 4 333
2010-01-07 1 69 0 28 3 556
2010-01-08 3 91 0 31 3 667
2010-01-09 2 63 0 16 6 182
2010-01-10 3 84 0 26 5 259
2010-01-11 0 69 0 34 3 960
2010-01-12 2 49 1 38 3 467
2010-01-13 3 71 0 43 3 364
2010-01-14 6 94 0 22 3 885
2010-01-15 1 39 0 35 3 006
2010-01-16 4 72 0 29 3 257
2010-01-17 3 64 0 21 3 633
2010-01-18 1 108 1 25 4 914
2010-01-19 0 43 0 32 4 202
2010-01-20 2 67 0 41 4 556
2010-01-21 1 91 1 31 3 743
2010-01-22 2 86 0 34 3 744
2010-01-23 2 36 1 19 2 584
2010-01-24 0 37 0 21 3 027
2010-01-25 2 126 1 37 4 743
2010-01-26 2 71 0 34 3 580
2010-01-27 1 58 0 20 3 145
2010-01-28 1 65 0 13 3 955
2010-01-29 3 81 0 17 3 847
2010-01-30 2 48 0 14 2 989
2010-01-31 3 60 0 14 3 387
* 2009 752 28 223 96 159 970 278
Décembre 2009 39 2 001 5 54 122 418
Novembre 2009 59 3 138 6 38 117 432
Octobre 2009 67 3 218 11 18 122 232
Septembre 2009 73 2 730 14 159 92 082
Août 2009 47 1 405 8 15 61 919
Juillet 2009 68 1 737 11 21 67 267
Juin 2009 63 2 759 4 37 72 789
Mai 2009 46 2 166 6 16 66 386
Avril 2009 101 2 850 6 16 73 303
2009-04-01 3 166 1 14 3 669
2009-04-02 1 193 0 11 4 316
2009-04-03 1 125 1 11 2 873
2009-04-04 0 28 1 16 1 192
2009-04-05 0 23 0 9 1 660
2009-04-06 2 85 0 10 2 211
2009-04-07 5 106 0 14 2 655
2009-04-08 0 63 0 10 2 215
2009-04-09 2 119 0 14 2 827
2009-04-10 2 67 0 12 3 232
2009-04-11 0 27 0 9 1 101
2009-04-12 3 47 0 9 1 431
2009-04-13 3 98 1 9 2 738
2009-04-14 4 78 0 10 2 286
2009-04-15 3 108 0 10 2 870
2009-04-16 3 81 0 11 2 229
2009-04-17 0 92 0 12 2 534
2009-04-18 2 24 0 6 1 168
2009-04-19 2 68 0 10 1 951
2009-04-20 8 173 0 11 3 260
2009-04-21 4 205 0 15 3 878
2009-04-22 1 65 0 9 2 011
2009-04-23 0 115 0 11 2 136
2009-04-24 32 152 0 13 3 302
2009-04-25 2 37 1 12 1 453
2009-04-26 5 110 0 9 2 132
2009-04-27 0 112 0 12 2 669
2009-04-28 3 105 0 11 2 478
2009-04-29 4 103 1 12 2 554
2009-04-30 6 75 0 11 2 272
Mars 2009 80 3 538 7 17 83 610
Février 2009 57 1 586 6 16 50 521
Janvier 2009 52 1 095 12 10 40 319
* 2008 334 4 655 56 26 234 055
Décembre 2008 36 663 7 12 28 104
Novembre 2008 51 1 090 9 10 35 948
Octobre 2008 50 609 5 10 26 582
Septembre 2008 40 619 5 10 24 365
2008-09-01 0 6 0 7 539
2008-09-02 2 16 0 0 576
2008-09-03 1 13 0 5 857
2008-09-04 1 9 0 6 627
2008-09-05 1 15 0 7 829
2008-09-06 1 7 0 6 671
2008-09-07 1 17 0 4 1 181
2008-09-08 5 29 0 6 1 459
2008-09-09 0 2 0 5 741
2008-09-10 1 9 0 5 540
2008-09-11 0 7 0 6 574
2008-09-12 2 27 0 7 779
2008-09-13 0 11 0 6 602
2008-09-14 0 5 0 6 478
2008-09-15 6 28 1 6 990
2008-09-16 1 15 0 6 639
2008-09-17 0 26 1 7 1 061
2008-09-18 1 14 0 6 720
2008-09-19 1 16 0 6 620
2008-09-20 0 9 0 5 403
2008-09-21 2 17 2 6 630
2008-09-22 0 32 0 7 887
2008-09-23 1 22 0 10 697
2008-09-24 3 54 0 10 1 244
2008-09-25 3 27 0 7 873
2008-09-26 1 23 0 6 770
2008-09-27 0 21 0 8 670
2008-09-28 2 35 0 7 911
2008-09-29 2 57 0 6 1 560
2008-09-30 2 50 1 9 1 237
Août 2008 28 252 6 9 21 916
Juillet 2008 20 256 5 7 16 733
Juin 2008 17 363 6 26 18 903
Mai 2008 17 180 2 10 13 320
2008-05-01 0 2 0 3 298
2008-05-02 0 7 0 3 301
2008-05-03 0 2 0 3 238
2008-05-04 0 2 0 4 802
2008-05-05 1 4 0 3 331
2008-05-06 0 6 0 0 392
2008-05-07 0 2 0 4 358
2008-05-08 0 1 0 2 277
2008-05-09 0 5 1 4 290
2008-05-10 0 2 0 3 288
2008-05-11 1 2 0 2 369
2008-05-12 1 6 0 5 569
2008-05-13 1 10 0 5 595
2008-05-14 0 16 1 4 626
2008-05-15 3 13 0 0 742
2008-05-16 0 7 0 5 526
2008-05-17 1 7 0 5 478
2008-05-18 0 3 0 4 760
2008-05-19 0 4 0 4 495
2008-05-20 1 5 0 3 347
2008-05-21 0 12 0 4 459
2008-05-22 0 4 0 5 505
2008-05-23 0 3 0 3 360
2008-05-24 1 8 0 4 308
2008-05-25 0 5 0 2 261
2008-05-26 0 7 0 3 260
2008-05-27 0 3 0 10 398
2008-05-28 3 8 0 7 411
2008-05-29 0 5 0 5 350
2008-05-30 1 9 0 0 574
2008-05-31 3 10 0 5 352
Avril 2008 16 146 3 8 16 063
Mars 2008 18 158 1 9 12 835
Février 2008 19 155 2 9 9 679
Janvier 2008 22 164 5 7 9 607
* 2007 276 2 246 55 9 102 999
Décembre 2007 21 167 5 8 17 081
Novembre 2007 20 168 3 6 8 467
Octobre 2007 21 147 4 5 8 193
Septembre 2007 22 183 4 9 9 896
Août 2007 23 226 2 6 9 096
Juillet 2007 18 127 1 4 10 165
Juin 2007 25 309 2 6 13 196
Mai 2007 30 315 8 7 11 830
2007-05-01 1 4 0 3 287
2007-05-02 1 6 0 4 196
2007-05-03 0 15 0 4 377
2007-05-04 0 6 0 3 271
2007-05-05 1 5 1 6 235
2007-05-06 0 6 1 3 344
2007-05-07 3 19 0 5 507
2007-05-08 1 14 0 6 449
2007-05-09 0 14 0 4 339
2007-05-10 1 9 1 4 472
2007-05-11 1 18 0 4 499
2007-05-12 3 8 0 5 354
2007-05-13 1 10 0 4 358
2007-05-14 4 25 0 7 643
2007-05-15 0 22 1 4 517
2007-05-16 0 14 0 3 354
2007-05-17 0 3 0 4 229
2007-05-18 0 4 0 5 356
2007-05-19 1 6 0 5 346
2007-05-20 2 14 0 5 515
2007-05-21 2 18 0 6 530
2007-05-22 0 13 1 5 424
2007-05-23 2 11 1 4 427
2007-05-24 0 7 0 3 276
2007-05-25 1 9 0 3 488
2007-05-26 0 3 0 4 251
2007-05-27 3 5 0 3 276
2007-05-28 0 4 2 4 451
2007-05-29 1 11 0 5 439
2007-05-30 0 5 0 4 316
2007-05-31 1 7 0 4 304
Avril 2007 44 428 13 9 13 382
Mars 2007 52 176 13 4 1 693